sensor_id;sensor_type;location;lat;lon;timestamp;temperature;humidity
6270;DHT22;3168;51.684;6.954;2024-03-08T00:01:49;3.00;1.00
6270;DHT22;3168;51.684;6.954;2024-03-08T00:04:15;3.00;1.00
6270;DHT22;3168;51.684;6.954;2024-03-08T00:06:41;3.00;1.00
6270;DHT22;3168;51.684;6.954;2024-03-08T00:09:07;3.00;1.00
6270;DHT22;3168;51.684;6.954;2024-03-08T00:11:34;3.00;1.00
6270;DHT22;3168;51.684;6.954;2024-03-08T00:14:00;2.90;1.00
6270;DHT22;3168;51.684;6.954;2024-03-08T00:16:25;2.90;1.00
6270;DHT22;3168;51.684;6.954;2024-03-08T00:18:51;2.90;1.00
6270;DHT22;3168;51.684;6.954;2024-03-08T00:21:17;2.90;1.00
6270;DHT22;3168;51.684;6.954;2024-03-08T00:23:43;2.90;1.00
6270;DHT22;3168;51.684;6.954;2024-03-08T00:26:09;2.90;1.00
6270;DHT22;3168;51.684;6.954;2024-03-08T00:28:35;2.80;1.00
6270;DHT22;3168;51.684;6.954;2024-03-08T00:31:01;2.80;1.00
6270;DHT22;3168;51.684;6.954;2024-03-08T00:33:26;2.80;1.00
6270;DHT22;3168;51.684;6.954;2024-03-08T00:35:54;2.80;1.00
6270;DHT22;3168;51.684;6.954;2024-03-08T00:38:20;2.80;1.00
6270;DHT22;3168;51.684;6.954;2024-03-08T00:40:46;2.80;1.00
6270;DHT22;3168;51.684;6.954;2024-03-08T00:43:12;2.80;1.00
6270;DHT22;3168;51.684;6.954;2024-03-08T00:45:38;2.80;1.00
6270;DHT22;3168;51.684;6.954;2024-03-08T00:48:05;2.70;1.00
6270;DHT22;3168;51.684;6.954;2024-03-08T00:50:31;2.70;1.00
6270;DHT22;3168;51.684;6.954;2024-03-08T00:52:58;2.70;1.00
6270;DHT22;3168;51.684;6.954;2024-03-08T00:55:25;2.70;1.00
6270;DHT22;3168;51.684;6.954;2024-03-08T00:57:51;2.70;1.00
6270;DHT22;3168;51.684;6.954;2024-03-08T01:00:18;2.70;1.00
6270;DHT22;3168;51.684;6.954;2024-03-08T01:02:44;2.70;1.00
6270;DHT22;3168;51.684;6.954;2024-03-08T01:05:09;2.60;1.00
6270;DHT22;3168;51.684;6.954;2024-03-08T01:07:35;2.60;1.00
6270;DHT22;3168;51.684;6.954;2024-03-08T01:10:03;2.60;1.00
6270;DHT22;3168;51.684;6.954;2024-03-08T01:12:28;2.50;1.00
6270;DHT22;3168;51.684;6.954;2024-03-08T01:14:53;2.50;1.00
6270;DHT22;3168;51.684;6.954;2024-03-08T01:17:19;2.50;1.00
6270;DHT22;3168;51.684;6.954;2024-03-08T01:19:45;2.40;1.00
6270;DHT22;3168;51.684;6.954;2024-03-08T01:22:11;2.40;1.00
6270;DHT22;3168;51.684;6.954;2024-03-08T01:24:37;2.40;1.00
6270;DHT22;3168;51.684;6.954;2024-03-08T01:27:03;2.40;1.00
6270;DHT22;3168;51.684;6.954;2024-03-08T01:29:28;2.40;1.00
6270;DHT22;3168;51.684;6.954;2024-03-08T01:31:56;2.30;1.00
6270;DHT22;3168;51.684;6.954;2024-03-08T01:34:22;2.30;1.00
6270;DHT22;3168;51.684;6.954;2024-03-08T01:36:48;2.30;1.00
6270;DHT22;3168;51.684;6.954;2024-03-08T01:39:14;2.30;1.00
6270;DHT22;3168;51.684;6.954;2024-03-08T01:41:40;2.30;1.00
6270;DHT22;3168;51.684;6.954;2024-03-08T01:44:06;2.20;1.00
6270;DHT22;3168;51.684;6.954;2024-03-08T01:46:32;2.30;1.00
6270;DHT22;3168;51.684;6.954;2024-03-08T01:48:58;2.20;1.00
6270;DHT22;3168;51.684;6.954;2024-03-08T01:51:24;2.20;1.00
6270;DHT22;3168;51.684;6.954;2024-03-08T01:53:49;2.20;1.00
6270;DHT22;3168;51.684;6.954;2024-03-08T01:56:15;2.20;1.00
6270;DHT22;3168;51.684;6.954;2024-03-08T01:58:41;2.20;1.00
6270;DHT22;3168;51.684;6.954;2024-03-08T02:01:11;2.20;1.00
6270;DHT22;3168;51.684;6.954;2024-03-08T02:03:38;2.10;1.00
6270;DHT22;3168;51.684;6.954;2024-03-08T02:06:04;2.10;1.00
6270;DHT22;3168;51.684;6.954;2024-03-08T02:08:30;2.10;1.00
6270;DHT22;3168;51.684;6.954;2024-03-08T02:10:55;2.10;1.00
6270;DHT22;3168;51.684;6.954;2024-03-08T02:13:21;2.00;1.00
6270;DHT22;3168;51.684;6.954;2024-03-08T02:15:57;2.00;1.00
6270;DHT22;3168;51.684;6.954;2024-03-08T02:18:22;2.00;1.00
6270;DHT22;3168;51.684;6.954;2024-03-08T02:20:50;2.00;1.00
6270;DHT22;3168;51.684;6.954;2024-03-08T02:23:15;2.00;1.00
6270;DHT22;3168;51.684;6.954;2024-03-08T02:25:41;2.00;1.00
6270;DHT22;3168;51.684;6.954;2024-03-08T02:28:10;2.00;1.00
6270;DHT22;3168;51.684;6.954;2024-03-08T02:30:35;2.00;1.00
6270;DHT22;3168;51.684;6.954;2024-03-08T02:33:00;2.00;1.00
6270;DHT22;3168;51.684;6.954;2024-03-08T02:35:26;2.00;1.00
6270;DHT22;3168;51.684;6.954;2024-03-08T02:37:52;1.90;1.00
6270;DHT22;3168;51.684;6.954;2024-03-08T02:40:18;1.90;1.00
6270;DHT22;3168;51.684;6.954;2024-03-08T02:42:44;1.90;1.00
6270;DHT22;3168;51.684;6.954;2024-03-08T02:45:10;1.90;1.00
6270;DHT22;3168;51.684;6.954;2024-03-08T02:47:35;1.90;1.00
6270;DHT22;3168;51.684;6.954;2024-03-08T02:50:01;1.90;1.00
6270;DHT22;3168;51.684;6.954;2024-03-08T02:52:27;1.80;1.00
6270;DHT22;3168;51.684;6.954;2024-03-08T02:54:53;1.90;1.00
6270;DHT22;3168;51.684;6.954;2024-03-08T02:57:19;1.80;1.00
6270;DHT22;3168;51.684;6.954;2024-03-08T02:59:44;1.80;1.00
6270;DHT22;3168;51.684;6.954;2024-03-08T03:02:10;1.80;1.00
6270;DHT22;3168;51.684;6.954;2024-03-08T03:04:39;1.80;1.00
6270;DHT22;3168;51.684;6.954;2024-03-08T03:07:03;1.80;1.00
6270;DHT22;3168;51.684;6.954;2024-03-08T03:09:29;1.70;1.00
6270;DHT22;3168;51.684;6.954;2024-03-08T03:11:54;1.70;1.00
6270;DHT22;3168;51.684;6.954;2024-03-08T03:14:21;1.70;1.00
6270;DHT22;3168;51.684;6.954;2024-03-08T03:16:46;1.70;1.00
6270;DHT22;3168;51.684;6.954;2024-03-08T03:19:12;1.70;1.00
6270;DHT22;3168;51.684;6.954;2024-03-08T03:21:38;1.70;1.00
6270;DHT22;3168;51.684;6.954;2024-03-08T03:24:04;1.60;1.00
6270;DHT22;3168;51.684;6.954;2024-03-08T03:26:30;1.60;1.00
6270;DHT22;3168;51.684;6.954;2024-03-08T03:28:56;1.60;1.00
6270;DHT22;3168;51.684;6.954;2024-03-08T03:31:22;1.60;1.00
6270;DHT22;3168;51.684;6.954;2024-03-08T03:33:47;1.60;1.00
6270;DHT22;3168;51.684;6.954;2024-03-08T03:36:13;1.60;1.00
6270;DHT22;3168;51.684;6.954;2024-03-08T03:38:39;1.60;1.00
6270;DHT22;3168;51.684;6.954;2024-03-08T03:41:05;1.60;1.00
6270;DHT22;3168;51.684;6.954;2024-03-08T03:43:31;1.60;1.00
6270;DHT22;3168;51.684;6.954;2024-03-08T03:45:57;1.60;1.00
6270;DHT22;3168;51.684;6.954;2024-03-08T03:48:23;1.60;1.00
6270;DHT22;3168;51.684;6.954;2024-03-08T03:50:48;1.60;1.00
6270;DHT22;3168;51.684;6.954;2024-03-08T03:53:14;1.60;1.00
6270;DHT22;3168;51.684;6.954;2024-03-08T03:55:40;1.60;1.00
6270;DHT22;3168;51.684;6.954;2024-03-08T03:58:06;1.60;1.00
6270;DHT22;3168;51.684;6.954;2024-03-08T04:00:32;1.50;1.00
6270;DHT22;3168;51.684;6.954;2024-03-08T04:02:58;1.50;1.00
6270;DHT22;3168;51.684;6.954;2024-03-08T04:05:24;1.50;1.00
6270;DHT22;3168;51.684;6.954;2024-03-08T04:07:49;1.50;1.00
6270;DHT22;3168;51.684;6.954;2024-03-08T04:10:15;1.50;1.00
6270;DHT22;3168;51.684;6.954;2024-03-08T04:12:42;1.40;1.00
6270;DHT22;3168;51.684;6.954;2024-03-08T04:15:08;1.50;1.00
6270;DHT22;3168;51.684;6.954;2024-03-08T04:17:34;1.50;1.00
6270;DHT22;3168;51.684;6.954;2024-03-08T04:20:01;1.50;1.00
6270;DHT22;3168;51.684;6.954;2024-03-08T04:22:27;1.50;1.00
6270;DHT22;3168;51.684;6.954;2024-03-08T04:24:53;1.40;1.00
6270;DHT22;3168;51.684;6.954;2024-03-08T04:27:19;1.40;1.00
6270;DHT22;3168;51.684;6.954;2024-03-08T04:29:45;1.40;1.00
6270;DHT22;3168;51.684;6.954;2024-03-08T04:32:11;1.40;1.00
6270;DHT22;3168;51.684;6.954;2024-03-08T04:34:37;1.40;1.00
6270;DHT22;3168;51.684;6.954;2024-03-08T04:37:03;1.30;1.00
6270;DHT22;3168;51.684;6.954;2024-03-08T04:39:29;1.30;1.00
6270;DHT22;3168;51.684;6.954;2024-03-08T04:41:55;1.30;1.00
6270;DHT22;3168;51.684;6.954;2024-03-08T04:44:21;1.30;1.00
6270;DHT22;3168;51.684;6.954;2024-03-08T04:46:46;1.30;1.00
6270;DHT22;3168;51.684;6.954;2024-03-08T04:49:12;1.30;1.00
6270;DHT22;3168;51.684;6.954;2024-03-08T04:51:38;1.30;1.00
6270;DHT22;3168;51.684;6.954;2024-03-08T04:54:04;1.30;1.00
6270;DHT22;3168;51.684;6.954;2024-03-08T04:56:31;1.30;1.00
6270;DHT22;3168;51.684;6.954;2024-03-08T04:58:57;1.30;1.00
6270;DHT22;3168;51.684;6.954;2024-03-08T05:01:23;1.30;1.00
6270;DHT22;3168;51.684;6.954;2024-03-08T05:03:49;1.20;1.00
6270;DHT22;3168;51.684;6.954;2024-03-08T05:06:14;1.20;1.00
6270;DHT22;3168;51.684;6.954;2024-03-08T05:08:40;1.20;1.00
6270;DHT22;3168;51.684;6.954;2024-03-08T05:11:06;1.30;1.00
6270;DHT22;3168;51.684;6.954;2024-03-08T05:13:32;1.30;1.00
6270;DHT22;3168;51.684;6.954;2024-03-08T05:15:58;1.20;1.00
6270;DHT22;3168;51.684;6.954;2024-03-08T05:18:24;1.20;1.00
6270;DHT22;3168;51.684;6.954;2024-03-08T05:20:50;1.20;1.00
6270;DHT22;3168;51.684;6.954;2024-03-08T05:23:16;1.20;1.00
6270;DHT22;3168;51.684;6.954;2024-03-08T05:25:42;1.20;1.00
6270;DHT22;3168;51.684;6.954;2024-03-08T05:28:08;1.20;1.00
6270;DHT22;3168;51.684;6.954;2024-03-08T05:30:33;1.20;1.00
6270;DHT22;3168;51.684;6.954;2024-03-08T05:32:59;1.20;1.00
6270;DHT22;3168;51.684;6.954;2024-03-08T05:35:25;1.20;1.00
6270;DHT22;3168;51.684;6.954;2024-03-08T05:37:51;1.10;1.00
6270;DHT22;3168;51.684;6.954;2024-03-08T05:40:17;1.10;1.00
6270;DHT22;3168;51.684;6.954;2024-03-08T05:42:43;1.10;1.00
6270;DHT22;3168;51.684;6.954;2024-03-08T05:45:09;1.10;1.00
6270;DHT22;3168;51.684;6.954;2024-03-08T05:47:36;1.10;1.00
6270;DHT22;3168;51.684;6.954;2024-03-08T05:50:01;1.10;1.00
6270;DHT22;3168;51.684;6.954;2024-03-08T05:52:27;1.10;1.00
6270;DHT22;3168;51.684;6.954;2024-03-08T05:54:53;1.10;1.00
6270;DHT22;3168;51.684;6.954;2024-03-08T05:57:19;1.10;1.00
6270;DHT22;3168;51.684;6.954;2024-03-08T05:59:45;1.10;1.00
6270;DHT22;3168;51.684;6.954;2024-03-08T06:02:11;1.10;1.00
6270;DHT22;3168;51.684;6.954;2024-03-08T06:04:37;1.10;1.00
6270;DHT22;3168;51.684;6.954;2024-03-08T06:07:03;1.20;1.00
6270;DHT22;3168;51.684;6.954;2024-03-08T06:09:29;1.10;1.00
6270;DHT22;3168;51.684;6.954;2024-03-08T06:11:55;1.20;1.00
6270;DHT22;3168;51.684;6.954;2024-03-08T06:14:21;1.10;1.00
6270;DHT22;3168;51.684;6.954;2024-03-08T06:16:46;1.10;1.00
6270;DHT22;3168;51.684;6.954;2024-03-08T06:19:13;1.10;1.00
6270;DHT22;3168;51.684;6.954;2024-03-08T06:21:38;1.10;1.00
6270;DHT22;3168;51.684;6.954;2024-03-08T06:24:04;1.10;1.00
6270;DHT22;3168;51.684;6.954;2024-03-08T06:26:30;1.10;1.00
6270;DHT22;3168;51.684;6.954;2024-03-08T06:28:57;1.20;1.00
6270;DHT22;3168;51.684;6.954;2024-03-08T06:31:22;1.20;1.00
6270;DHT22;3168;51.684;6.954;2024-03-08T06:33:48;1.20;1.00
6270;DHT22;3168;51.684;6.954;2024-03-08T06:36:16;1.20;1.00
6270;DHT22;3168;51.684;6.954;2024-03-08T06:38:41;1.20;1.00
6270;DHT22;3168;51.684;6.954;2024-03-08T06:41:08;1.30;1.00
6270;DHT22;3168;51.684;6.954;2024-03-08T06:43:33;1.30;1.00
6270;DHT22;3168;51.684;6.954;2024-03-08T06:45:59;1.30;1.00
6270;DHT22;3168;51.684;6.954;2024-03-08T06:48:25;1.40;1.00
6270;DHT22;3168;51.684;6.954;2024-03-08T06:50:51;1.40;1.00
6270;DHT22;3168;51.684;6.954;2024-03-08T06:53:17;1.40;1.00
6270;DHT22;3168;51.684;6.954;2024-03-08T06:55:43;1.50;1.00
6270;DHT22;3168;51.684;6.954;2024-03-08T06:58:09;1.50;1.00
6270;DHT22;3168;51.684;6.954;2024-03-08T07:00:35;1.60;1.00
6270;DHT22;3168;51.684;6.954;2024-03-08T07:03:01;1.60;1.00
6270;DHT22;3168;51.684;6.954;2024-03-08T07:05:27;1.60;1.00
6270;DHT22;3168;51.684;6.954;2024-03-08T07:07:52;1.70;1.00
6270;DHT22;3168;51.684;6.954;2024-03-08T07:10:18;1.60;1.00
6270;DHT22;3168;51.684;6.954;2024-03-08T07:12:44;1.70;1.00
6270;DHT22;3168;51.684;6.954;2024-03-08T07:15:10;1.80;1.00
6270;DHT22;3168;51.684;6.954;2024-03-08T07:17:36;1.80;1.00
6270;DHT22;3168;51.684;6.954;2024-03-08T07:20:02;1.80;1.00
6270;DHT22;3168;51.684;6.954;2024-03-08T07:22:28;1.90;1.00
6270;DHT22;3168;51.684;6.954;2024-03-08T07:24:54;1.90;1.00
6270;DHT22;3168;51.684;6.954;2024-03-08T07:27:27;1.90;1.00
6270;DHT22;3168;51.684;6.954;2024-03-08T07:29:53;2.00;1.00
6270;DHT22;3168;51.684;6.954;2024-03-08T07:32:18;2.10;1.00
6270;DHT22;3168;51.684;6.954;2024-03-08T07:34:47;2.10;1.00
6270;DHT22;3168;51.684;6.954;2024-03-08T07:37:13;2.10;1.00
6270;DHT22;3168;51.684;6.954;2024-03-08T07:39:39;2.20;1.00
6270;DHT22;3168;51.684;6.954;2024-03-08T07:42:05;2.30;1.00
6270;DHT22;3168;51.684;6.954;2024-03-08T07:44:31;2.30;1.00
6270;DHT22;3168;51.684;6.954;2024-03-08T07:46:57;2.40;1.00
6270;DHT22;3168;51.684;6.954;2024-03-08T07:49:23;2.50;1.00
6270;DHT22;3168;51.684;6.954;2024-03-08T07:51:48;2.50;1.00
6270;DHT22;3168;51.684;6.954;2024-03-08T07:54:14;2.50;1.00
6270;DHT22;3168;51.684;6.954;2024-03-08T07:56:40;2.60;1.00
6270;DHT22;3168;51.684;6.954;2024-03-08T07:59:06;2.70;1.00
6270;DHT22;3168;51.684;6.954;2024-03-08T08:01:32;2.70;1.00
6270;DHT22;3168;51.684;6.954;2024-03-08T08:03:58;2.70;1.00
6270;DHT22;3168;51.684;6.954;2024-03-08T08:06:24;2.80;1.00
6270;DHT22;3168;51.684;6.954;2024-03-08T08:08:50;2.80;1.00
6270;DHT22;3168;51.684;6.954;2024-03-08T08:11:16;2.90;1.00
6270;DHT22;3168;51.684;6.954;2024-03-08T08:13:42;3.00;1.00
6270;DHT22;3168;51.684;6.954;2024-03-08T08:16:07;3.10;1.00
6270;DHT22;3168;51.684;6.954;2024-03-08T08:18:33;3.20;1.00
6270;DHT22;3168;51.684;6.954;2024-03-08T08:20:59;3.30;1.00
6270;DHT22;3168;51.684;6.954;2024-03-08T08:23:26;3.30;1.00
6270;DHT22;3168;51.684;6.954;2024-03-08T08:25:52;3.50;1.00
6270;DHT22;3168;51.684;6.954;2024-03-08T08:28:18;3.50;1.00
6270;DHT22;3168;51.684;6.954;2024-03-08T08:30:44;3.60;1.00
6270;DHT22;3168;51.684;6.954;2024-03-08T08:33:10;3.60;1.00
6270;DHT22;3168;51.684;6.954;2024-03-08T08:35:36;3.70;1.00
6270;DHT22;3168;51.684;6.954;2024-03-08T08:38:02;3.70;1.00
6270;DHT22;3168;51.684;6.954;2024-03-08T08:40:28;3.80;1.00
6270;DHT22;3168;51.684;6.954;2024-03-08T08:42:54;3.90;1.00
6270;DHT22;3168;51.684;6.954;2024-03-08T08:45:20;4.00;1.00
6270;DHT22;3168;51.684;6.954;2024-03-08T08:47:46;4.10;1.00
6270;DHT22;3168;51.684;6.954;2024-03-08T08:50:12;4.20;1.00
6270;DHT22;3168;51.684;6.954;2024-03-08T08:52:38;4.30;1.00
6270;DHT22;3168;51.684;6.954;2024-03-08T08:55:04;4.30;1.00
6270;DHT22;3168;51.684;6.954;2024-03-08T08:57:30;4.40;1.00
6270;DHT22;3168;51.684;6.954;2024-03-08T08:59:56;4.50;1.00
6270;DHT22;3168;51.684;6.954;2024-03-08T09:02:22;4.60;1.00
6270;DHT22;3168;51.684;6.954;2024-03-08T09:04:48;4.80;1.00
6270;DHT22;3168;51.684;6.954;2024-03-08T09:07:14;4.90;1.00
6270;DHT22;3168;51.684;6.954;2024-03-08T09:09:39;5.00;1.00
6270;DHT22;3168;51.684;6.954;2024-03-08T09:12:06;5.00;1.00
6270;DHT22;3168;51.684;6.954;2024-03-08T09:14:32;5.10;1.00
6270;DHT22;3168;51.684;6.954;2024-03-08T09:16:58;5.20;1.00
6270;DHT22;3168;51.684;6.954;2024-03-08T09:19:23;5.30;1.00
6270;DHT22;3168;51.684;6.954;2024-03-08T09:21:49;5.30;1.00
6270;DHT22;3168;51.684;6.954;2024-03-08T09:24:15;5.30;1.00
6270;DHT22;3168;51.684;6.954;2024-03-08T09:26:41;5.40;1.00
6270;DHT22;3168;51.684;6.954;2024-03-08T09:29:07;5.50;1.00
6270;DHT22;3168;51.684;6.954;2024-03-08T09:31:33;5.50;1.00
6270;DHT22;3168;51.684;6.954;2024-03-08T09:33:59;5.60;1.00
6270;DHT22;3168;51.684;6.954;2024-03-08T09:36:25;5.80;1.00
6270;DHT22;3168;51.684;6.954;2024-03-08T09:38:50;5.80;1.00
6270;DHT22;3168;51.684;6.954;2024-03-08T09:41:16;5.80;1.00
6270;DHT22;3168;51.684;6.954;2024-03-08T09:43:42;6.00;1.00
6270;DHT22;3168;51.684;6.954;2024-03-08T09:46:08;6.10;1.00
6270;DHT22;3168;51.684;6.954;2024-03-08T09:48:34;6.10;1.00
6270;DHT22;3168;51.684;6.954;2024-03-08T09:51:00;6.10;1.00
6270;DHT22;3168;51.684;6.954;2024-03-08T09:53:26;6.10;1.00
6270;DHT22;3168;51.684;6.954;2024-03-08T09:55:52;6.10;1.00
6270;DHT22;3168;51.684;6.954;2024-03-08T09:58:18;6.30;1.00
6270;DHT22;3168;51.684;6.954;2024-03-08T10:01:00;6.40;1.00
6270;DHT22;3168;51.684;6.954;2024-03-08T10:03:28;6.40;1.00
6270;DHT22;3168;51.684;6.954;2024-03-08T10:05:53;6.60;1.00
6270;DHT22;3168;51.684;6.954;2024-03-08T10:08:19;6.70;1.00
6270;DHT22;3168;51.684;6.954;2024-03-08T10:10:45;6.70;1.00
6270;DHT22;3168;51.684;6.954;2024-03-08T10:13:12;6.80;1.00
6270;DHT22;3168;51.684;6.954;2024-03-08T10:15:39;6.90;1.00
6270;DHT22;3168;51.684;6.954;2024-03-08T10:18:04;6.90;1.00
6270;DHT22;3168;51.684;6.954;2024-03-08T10:20:30;6.90;1.00
6270;DHT22;3168;51.684;6.954;2024-03-08T10:22:56;7.10;1.00
6270;DHT22;3168;51.684;6.954;2024-03-08T10:25:22;7.20;1.00
6270;DHT22;3168;51.684;6.954;2024-03-08T10:27:48;7.20;1.00
6270;DHT22;3168;51.684;6.954;2024-03-08T10:30:15;7.30;1.00
6270;DHT22;3168;51.684;6.954;2024-03-08T10:32:41;7.30;1.00
6270;DHT22;3168;51.684;6.954;2024-03-08T10:35:08;7.30;1.00
6270;DHT22;3168;51.684;6.954;2024-03-08T10:37:36;7.40;1.00
6270;DHT22;3168;51.684;6.954;2024-03-08T10:40:03;7.50;1.00
6270;DHT22;3168;51.684;6.954;2024-03-08T10:42:31;7.70;1.00
6270;DHT22;3168;51.684;6.954;2024-03-08T10:45:01;7.80;1.00
6270;DHT22;3168;51.684;6.954;2024-03-08T10:47:26;7.80;1.00
6270;DHT22;3168;51.684;6.954;2024-03-08T10:49:55;7.80;1.00
6270;DHT22;3168;51.684;6.954;2024-03-08T10:52:21;7.70;1.00
6270;DHT22;3168;51.684;6.954;2024-03-08T10:54:46;7.90;1.00
6270;DHT22;3168;51.684;6.954;2024-03-08T10:57:13;7.80;1.00
6270;DHT22;3168;51.684;6.954;2024-03-08T10:59:39;7.90;1.00
6270;DHT22;3168;51.684;6.954;2024-03-08T11:02:05;8.00;1.00
6270;DHT22;3168;51.684;6.954;2024-03-08T11:04:32;8.10;1.00
6270;DHT22;3168;51.684;6.954;2024-03-08T11:07:00;8.10;1.00
6270;DHT22;3168;51.684;6.954;2024-03-08T11:09:27;8.30;1.00
6270;DHT22;3168;51.684;6.954;2024-03-08T11:12:11;8.40;1.00
6270;DHT22;3168;51.684;6.954;2024-03-08T11:16:52;8.30;1.00
6270;DHT22;3168;51.684;6.954;2024-03-08T11:19:26;8.40;1.00
6270;DHT22;3168;51.684;6.954;2024-03-08T11:21:59;8.40;1.00
6270;DHT22;3168;51.684;6.954;2024-03-08T11:24:24;8.30;1.00
6270;DHT22;3168;51.684;6.954;2024-03-08T11:26:52;8.40;1.00
6270;DHT22;3168;51.684;6.954;2024-03-08T11:29:35;8.40;1.00
6270;DHT22;3168;51.684;6.954;2024-03-08T11:34:46;8.50;1.00
6270;DHT22;3168;51.684;6.954;2024-03-08T11:37:13;8.50;1.00
6270;DHT22;3168;51.684;6.954;2024-03-08T11:39:39;8.70;1.00
6270;DHT22;3168;51.684;6.954;2024-03-08T11:42:05;8.80;1.00
6270;DHT22;3168;51.684;6.954;2024-03-08T11:44:31;8.80;1.00
6270;DHT22;3168;51.684;6.954;2024-03-08T11:46:57;8.80;1.00
6270;DHT22;3168;51.684;6.954;2024-03-08T11:49:23;8.80;1.00
6270;DHT22;3168;51.684;6.954;2024-03-08T11:51:52;8.70;1.00
6270;DHT22;3168;51.684;6.954;2024-03-08T11:54:17;8.90;1.00
6270;DHT22;3168;51.684;6.954;2024-03-08T11:56:44;8.90;1.00
6270;DHT22;3168;51.684;6.954;2024-03-08T11:59:11;8.90;1.00
6270;DHT22;3168;51.684;6.954;2024-03-08T12:01:36;8.90;1.00
6270;DHT22;3168;51.684;6.954;2024-03-08T12:04:02;8.80;1.00
6270;DHT22;3168;51.684;6.954;2024-03-08T12:06:36;8.90;1.00
6270;DHT22;3168;51.684;6.954;2024-03-08T12:08:54;9.00;1.00
6270;DHT22;3168;51.684;6.954;2024-03-08T12:11:20;9.00;1.00
6270;DHT22;3168;51.684;6.954;2024-03-08T12:13:46;9.00;1.00
6270;DHT22;3168;51.684;6.954;2024-03-08T12:16:12;9.00;1.00
6270;DHT22;3168;51.684;6.954;2024-03-08T12:18:38;9.00;1.00
6270;DHT22;3168;51.684;6.954;2024-03-08T12:21:08;9.20;1.00
6270;DHT22;3168;51.684;6.954;2024-03-08T12:23:35;9.20;1.00
6270;DHT22;3168;51.684;6.954;2024-03-08T12:26:09;9.20;1.00
6270;DHT22;3168;51.684;6.954;2024-03-08T12:28:34;9.30;1.00
6270;DHT22;3168;51.684;6.954;2024-03-08T12:31:00;9.30;1.00
6270;DHT22;3168;51.684;6.954;2024-03-08T12:33:26;9.50;1.00
6270;DHT22;3168;51.684;6.954;2024-03-08T12:35:53;9.50;1.00
6270;DHT22;3168;51.684;6.954;2024-03-08T12:38:20;9.50;1.00
6270;DHT22;3168;51.684;6.954;2024-03-08T12:40:45;9.50;1.00
6270;DHT22;3168;51.684;6.954;2024-03-08T12:43:11;9.40;1.00
6270;DHT22;3168;51.684;6.954;2024-03-08T12:45:37;9.40;1.00
6270;DHT22;3168;51.684;6.954;2024-03-08T12:48:04;9.40;1.00
6270;DHT22;3168;51.684;6.954;2024-03-08T12:50:30;9.40;1.00
6270;DHT22;3168;51.684;6.954;2024-03-08T12:52:56;9.60;1.00
6270;DHT22;3168;51.684;6.954;2024-03-08T12:55:22;9.70;1.00
6270;DHT22;3168;51.684;6.954;2024-03-08T12:57:48;9.60;1.00
6270;DHT22;3168;51.684;6.954;2024-03-08T13:00:14;9.70;1.00
6270;DHT22;3168;51.684;6.954;2024-03-08T13:02:40;9.80;1.00
6270;DHT22;3168;51.684;6.954;2024-03-08T13:05:07;9.90;1.00
6270;DHT22;3168;51.684;6.954;2024-03-08T13:07:33;9.80;1.00
6270;DHT22;3168;51.684;6.954;2024-03-08T13:09:59;9.80;1.00
6270;DHT22;3168;51.684;6.954;2024-03-08T13:12:25;9.90;1.00
6270;DHT22;3168;51.684;6.954;2024-03-08T13:14:51;10.00;1.00
6270;DHT22;3168;51.684;6.954;2024-03-08T13:17:17;10.00;1.00
6270;DHT22;3168;51.684;6.954;2024-03-08T13:19:44;10.00;1.00
6270;DHT22;3168;51.684;6.954;2024-03-08T13:22:10;10.00;1.00
6270;DHT22;3168;51.684;6.954;2024-03-08T13:24:39;10.10;1.00
6270;DHT22;3168;51.684;6.954;2024-03-08T13:27:05;10.00;1.00
6270;DHT22;3168;51.684;6.954;2024-03-08T13:29:31;10.10;1.00
6270;DHT22;3168;51.684;6.954;2024-03-08T13:31:57;10.00;1.00
6270;DHT22;3168;51.684;6.954;2024-03-08T13:34:23;10.00;1.00
6270;DHT22;3168;51.684;6.954;2024-03-08T13:36:49;10.10;1.00
6270;DHT22;3168;51.684;6.954;2024-03-08T13:39:15;10.30;1.00
6270;DHT22;3168;51.684;6.954;2024-03-08T13:41:41;10.30;1.00
6270;DHT22;3168;51.684;6.954;2024-03-08T13:44:07;10.30;1.00
6270;DHT22;3168;51.684;6.954;2024-03-08T13:46:33;10.40;1.00
6270;DHT22;3168;51.684;6.954;2024-03-08T13:49:03;10.50;1.00
6270;DHT22;3168;51.684;6.954;2024-03-08T13:51:27;10.50;1.00
6270;DHT22;3168;51.684;6.954;2024-03-08T13:53:53;10.60;1.00
6270;DHT22;3168;51.684;6.954;2024-03-08T13:56:19;10.40;1.00
6270;DHT22;3168;51.684;6.954;2024-03-08T13:58:45;10.30;1.00
6270;DHT22;3168;51.684;6.954;2024-03-08T14:06:36;10.30;1.00
6270;DHT22;3168;51.684;6.954;2024-03-08T14:09:03;10.30;1.00
6270;DHT22;3168;51.684;6.954;2024-03-08T14:11:29;10.30;1.00
6270;DHT22;3168;51.684;6.954;2024-03-08T14:13:55;10.30;1.00
6270;DHT22;3168;51.684;6.954;2024-03-08T14:16:20;10.30;1.00
6270;DHT22;3168;51.684;6.954;2024-03-08T14:18:46;10.40;1.00
6270;DHT22;3168;51.684;6.954;2024-03-08T14:21:12;10.40;1.00
6270;DHT22;3168;51.684;6.954;2024-03-08T14:23:40;10.50;1.00
6270;DHT22;3168;51.684;6.954;2024-03-08T14:26:04;10.30;1.00
6270;DHT22;3168;51.684;6.954;2024-03-08T14:28:29;10.30;1.00
6270;DHT22;3168;51.684;6.954;2024-03-08T14:30:55;10.20;1.00
6270;DHT22;3168;51.684;6.954;2024-03-08T14:33:21;10.20;1.00
6270;DHT22;3168;51.684;6.954;2024-03-08T14:35:46;10.30;1.00
6270;DHT22;3168;51.684;6.954;2024-03-08T14:38:12;10.20;1.00
6270;DHT22;3168;51.684;6.954;2024-03-08T14:40:38;10.30;1.00
6270;DHT22;3168;51.684;6.954;2024-03-08T14:43:04;10.40;1.00
6270;DHT22;3168;51.684;6.954;2024-03-08T14:45:30;10.40;1.00
6270;DHT22;3168;51.684;6.954;2024-03-08T14:47:56;10.50;1.00
6270;DHT22;3168;51.684;6.954;2024-03-08T14:50:22;10.40;1.00
6270;DHT22;3168;51.684;6.954;2024-03-08T14:52:48;10.50;1.00
6270;DHT22;3168;51.684;6.954;2024-03-08T14:55:15;10.50;1.00
6270;DHT22;3168;51.684;6.954;2024-03-08T14:57:42;10.60;1.00
6270;DHT22;3168;51.684;6.954;2024-03-08T15:00:08;10.60;1.00
6270;DHT22;3168;51.684;6.954;2024-03-08T15:02:35;10.40;1.00
6270;DHT22;3168;51.684;6.954;2024-03-08T15:05:00;10.70;1.00
6270;DHT22;3168;51.684;6.954;2024-03-08T15:07:26;11.00;1.00
6270;DHT22;3168;51.684;6.954;2024-03-08T15:09:52;10.90;1.00
6270;DHT22;3168;51.684;6.954;2024-03-08T15:12:18;11.00;1.00
6270;DHT22;3168;51.684;6.954;2024-03-08T15:14:44;11.10;1.00
6270;DHT22;3168;51.684;6.954;2024-03-08T15:17:10;11.40;1.00
6270;DHT22;3168;51.684;6.954;2024-03-08T15:19:36;11.30;1.00
6270;DHT22;3168;51.684;6.954;2024-03-08T15:22:01;11.30;1.00
6270;DHT22;3168;51.684;6.954;2024-03-08T15:24:27;11.00;1.00
6270;DHT22;3168;51.684;6.954;2024-03-08T15:26:53;11.10;1.00
6270;DHT22;3168;51.684;6.954;2024-03-08T15:29:19;11.40;1.00
6270;DHT22;3168;51.684;6.954;2024-03-08T15:31:44;11.20;1.00
6270;DHT22;3168;51.684;6.954;2024-03-08T15:34:10;11.10;1.00
6270;DHT22;3168;51.684;6.954;2024-03-08T15:36:36;11.10;1.00
6270;DHT22;3168;51.684;6.954;2024-03-08T15:39:02;11.00;1.00
6270;DHT22;3168;51.684;6.954;2024-03-08T15:41:29;11.30;1.00
6270;DHT22;3168;51.684;6.954;2024-03-08T15:43:54;11.30;1.00
6270;DHT22;3168;51.684;6.954;2024-03-08T15:46:20;11.50;1.00
6270;DHT22;3168;51.684;6.954;2024-03-08T15:48:46;11.40;1.00
6270;DHT22;3168;51.684;6.954;2024-03-08T15:51:12;11.10;1.00
6270;DHT22;3168;51.684;6.954;2024-03-08T15:53:38;11.00;1.00
6270;DHT22;3168;51.684;6.954;2024-03-08T15:56:05;11.40;1.00
6270;DHT22;3168;51.684;6.954;2024-03-08T15:58:31;11.40;1.00
6270;DHT22;3168;51.684;6.954;2024-03-08T16:00:57;11.20;1.00
6270;DHT22;3168;51.684;6.954;2024-03-08T16:03:23;11.10;1.00
6270;DHT22;3168;51.684;6.954;2024-03-08T16:05:48;11.50;1.00
6270;DHT22;3168;51.684;6.954;2024-03-08T16:08:16;11.40;1.00
6270;DHT22;3168;51.684;6.954;2024-03-08T16:10:42;11.20;1.00
6270;DHT22;3168;51.684;6.954;2024-03-08T16:13:07;11.00;1.00
6270;DHT22;3168;51.684;6.954;2024-03-08T16:15:33;10.70;1.00
6270;DHT22;3168;51.684;6.954;2024-03-08T16:17:59;10.80;1.00
6270;DHT22;3168;51.684;6.954;2024-03-08T16:20:25;10.50;1.00
6270;DHT22;3168;51.684;6.954;2024-03-08T16:22:50;10.50;1.00
6270;DHT22;3168;51.684;6.954;2024-03-08T16:25:17;10.50;1.00
6270;DHT22;3168;51.684;6.954;2024-03-08T16:27:43;10.50;1.00
6270;DHT22;3168;51.684;6.954;2024-03-08T16:30:09;10.40;1.00
6270;DHT22;3168;51.684;6.954;2024-03-08T16:32:35;10.30;1.00
6270;DHT22;3168;51.684;6.954;2024-03-08T16:35:01;10.20;1.00